createdAt,value
2018-03-26T00:00:18.211Z,12.80
2018-03-26T00:02:45.786Z,14.10
2018-03-26T00:05:13.279Z,13.67
2018-03-26T00:07:40.827Z,12.93
2018-03-26T00:10:08.330Z,12.33
2018-03-26T00:12:36.616Z,12.80
2018-03-26T00:15:04.208Z,13.43
2018-03-26T00:17:31.782Z,12.80
2018-03-26T00:20:00.067Z,12.57
2018-03-26T00:22:28.406Z,13.37
2018-03-26T00:24:55.946Z,13.90
2018-03-26T00:27:23.450Z,13.07
2018-03-26T00:29:51.774Z,12.37
2018-03-26T00:32:19.306Z,12.40
2018-03-26T00:34:46.939Z,13.60
2018-03-26T00:37:14.412Z,12.77
2018-03-26T00:39:41.941Z,13.10
2018-03-26T00:42:10.246Z,13.53
2018-03-26T00:44:37.766Z,12.20
2018-03-26T00:47:05.317Z,13.30
2018-03-26T00:49:32.841Z,14.07
2018-03-26T00:52:00.367Z,13.17
2018-03-26T00:54:28.702Z,12.33
2018-03-26T00:56:56.279Z,13.57
2018-03-26T00:59:23.804Z,12.43
2018-03-26T01:01:51.371Z,13.53
2018-03-26T01:04:18.891Z,14.27
2018-03-26T01:06:46.419Z,13.43
2018-03-26T01:09:14.738Z,13.57
2018-03-26T01:11:42.250Z,13.93
2018-03-26T01:14:10.546Z,13.73
2018-03-26T01:16:38.089Z,13.40
2018-03-26T01:19:06.386Z,13.37
2018-03-26T01:21:33.955Z,12.57
2018-03-26T01:24:01.936Z,13.97
2018-03-26T01:26:29.497Z,13.60
2018-03-26T01:28:57.056Z,13.57
2018-03-26T01:31:24.601Z,14.37
2018-03-26T01:33:52.145Z,13.90
2018-03-26T01:36:19.694Z,13.47
2018-03-26T01:38:47.222Z,12.93
2018-03-26T01:41:15.523Z,13.77
2018-03-26T01:43:43.820Z,13.30
2018-03-26T01:46:11.342Z,13.43
2018-03-26T01:48:39.627Z,13.43
2018-03-26T01:51:07.914Z,13.27
2018-03-26T01:53:35.449Z,14.10
2018-03-26T01:56:03.775Z,13.40
2018-03-26T01:58:31.323Z,13.73
2018-03-26T02:00:59.029Z,13.13
2018-03-26T02:03:26.591Z,12.43
2018-03-26T02:05:54.914Z,12.87
2018-03-26T02:08:22.431Z,14.50
2018-03-26T02:10:50.766Z,14.80
2018-03-26T02:13:18.332Z,13.53
2018-03-26T02:15:45.897Z,14.47
2018-03-26T02:18:14.250Z,14.97
2018-03-26T02:20:41.781Z,14.60
2018-03-26T02:23:09.340Z,15.30
2018-03-26T02:25:36.900Z,16.37
2018-03-26T02:28:04.487Z,15.03
2018-03-26T02:30:32.050Z,15.77
2018-03-26T02:32:59.610Z,17.40
2018-03-26T02:35:27.177Z,16.90
2018-03-26T02:37:54.794Z,16.33
2018-03-26T02:40:22.334Z,16.80
2018-03-26T02:42:50.012Z,17.30
2018-03-26T02:45:17.540Z,17.00
2018-03-26T02:47:45.082Z,18.17
2018-03-26T02:50:13.439Z,17.43
2018-03-26T02:52:40.991Z,18.23
2018-03-26T02:55:08.606Z,17.73
2018-03-26T02:57:36.156Z,17.90
2018-03-26T03:00:04.461Z,17.17
2018-03-26T03:02:32.003Z,17.67
2018-03-26T03:04:59.535Z,16.87
2018-03-26T03:07:27.080Z,17.47
2018-03-26T03:09:54.623Z,16.77
2018-03-26T03:12:22.152Z,16.93
2018-03-26T03:14:49.694Z,16.83
2018-03-26T03:17:17.230Z,16.83
2018-03-26T03:19:44.786Z,17.80
2018-03-26T03:22:13.070Z,16.17
2018-03-26T03:24:41.379Z,16.83
2018-03-26T03:27:08.895Z,16.93
2018-03-26T03:29:37.183Z,17.97
2018-03-26T03:32:04.719Z,17.87
2018-03-26T03:34:32.296Z,17.90
2018-03-26T03:36:59.849Z,18.30
2018-03-26T03:39:28.165Z,18.57
2018-03-26T03:41:55.739Z,18.67
2018-03-26T03:44:23.313Z,19.73
2018-03-26T03:46:51.673Z,19.23
2018-03-26T03:49:19.206Z,20.60
2018-03-26T03:51:46.764Z,19.37
2018-03-26T03:54:14.288Z,20.03
2018-03-26T03:56:42.584Z,21.00
2018-03-26T03:59:10.186Z,20.87
2018-03-26T04:01:37.698Z,19.33
2018-03-26T04:04:05.256Z,20.13
2018-03-26T04:06:32.922Z,20.90
2018-03-26T04:09:00.458Z,20.57
2018-03-26T04:11:28.850Z,21.70
2018-03-26T04:13:56.491Z,20.30
2018-03-26T04:16:24.027Z,21.00
2018-03-26T04:18:51.543Z,20.33
2018-03-26T04:21:19.862Z,20.73
2018-03-26T04:23:47.424Z,22.13
2018-03-26T04:26:15.039Z,20.03
2018-03-26T04:28:42.611Z,20.53
2018-03-26T04:31:10.137Z,22.10
2018-03-26T04:33:37.672Z,20.83
2018-03-26T04:36:05.956Z,21.53
2018-03-26T04:38:33.471Z,21.10
2018-03-26T04:41:00.992Z,21.33
2018-03-26T04:43:28.526Z,22.27
2018-03-26T04:45:56.827Z,21.33
2018-03-26T04:48:24.358Z,23.30
2018-03-26T04:50:51.940Z,23.53
2018-03-26T04:53:19.482Z,23.47
2018-03-26T04:55:47.052Z,22.33
2018-03-26T04:58:14.548Z,23.70
2018-03-26T05:00:42.084Z,22.60
2018-03-26T05:03:09.611Z,23.03
2018-03-26T05:05:37.264Z,23.77
2018-03-26T05:08:05.660Z,23.03
2018-03-26T05:10:33.194Z,22.40
2018-03-26T05:13:01.458Z,21.63
2018-03-26T05:15:29.759Z,22.20
2018-03-26T05:17:57.265Z,22.80
2018-03-26T05:20:24.841Z,23.30
2018-03-26T05:22:52.381Z,22.23
2018-03-26T05:25:20.711Z,23.07
2018-03-26T05:27:48.243Z,22.60
2018-03-26T05:30:15.792Z,21.60
2018-03-26T05:32:44.151Z,24.13
2018-03-26T05:35:11.669Z,23.73
2018-03-26T05:37:39.200Z,23.00
2018-03-26T05:40:06.768Z,24.03
2018-03-26T05:42:34.297Z,23.63
2018-03-26T05:45:02.605Z,23.70
2018-03-26T05:47:30.143Z,23.73
2018-03-26T05:49:58.420Z,24.63
2018-03-26T05:52:26.832Z,22.93
2018-03-26T05:54:54.363Z,24.50
2018-03-26T05:57:22.642Z,24.10
2018-03-26T05:59:50.163Z,23.97
2018-03-26T06:02:17.680Z,24.47
2018-03-26T06:04:45.203Z,23.90
2018-03-26T06:07:13.487Z,24.03
2018-03-26T06:09:41.058Z,24.53
2018-03-26T06:12:08.567Z,24.60
2018-03-26T06:14:36.088Z,25.20
2018-03-26T06:17:15.904Z,26.30
2018-03-26T06:19:43.442Z,24.97
2018-03-26T06:22:11.766Z,24.73
2018-03-26T06:24:39.283Z,25.43
2018-03-26T06:27:07.566Z,24.87
2018-03-26T06:29:36.069Z,24.13
2018-03-26T06:32:03.574Z,24.97
2018-03-26T06:34:31.099Z,23.37
2018-03-26T06:40:04.450Z,24.47
2018-03-26T06:42:31.947Z,24.23
2018-03-26T06:44:59.461Z,23.83
2018-03-26T06:47:27.767Z,24.83
2018-03-26T06:49:55.330Z,24.30
2018-03-26T06:52:22.848Z,24.60
2018-03-26T06:54:50.358Z,23.50
2018-03-26T06:57:17.926Z,23.73
2018-03-26T06:59:46.208Z,24.23
2018-03-26T07:02:13.723Z,24.23
2018-03-26T07:04:42.006Z,24.27
2018-03-26T07:07:09.663Z,24.77
2018-03-26T07:09:37.306Z,23.23
2018-03-26T07:12:05.574Z,23.90
2018-03-26T07:14:33.110Z,24.37
2018-03-26T07:17:00.624Z,24.20
2018-03-26T07:19:28.185Z,25.37
2018-03-26T07:21:55.727Z,25.03
2018-03-26T07:24:23.244Z,24.27
2018-03-26T07:26:50.767Z,24.23
2018-03-26T07:29:18.387Z,23.30
2018-03-26T07:31:46.714Z,25.07
2018-03-26T07:34:14.257Z,24.03
2018-03-26T07:36:41.827Z,24.80
2018-03-26T07:39:09.446Z,24.63
2018-03-26T07:41:37.732Z,25.53
2018-03-26T07:44:05.235Z,25.47
2018-03-26T07:46:32.774Z,25.90
2018-03-26T07:49:00.342Z,24.20
2018-03-26T07:51:27.954Z,26.47
2018-03-26T07:53:55.474Z,27.27
2018-03-26T07:56:23.779Z,26.53
2018-03-26T07:58:52.055Z,26.80
2018-03-26T08:01:20.451Z,26.67
2018-03-26T08:03:47.990Z,27.07
2018-03-26T08:06:16.274Z,26.97
2018-03-26T08:08:43.800Z,25.80
2018-03-26T08:11:11.326Z,26.20
2018-03-26T08:13:38.946Z,26.77
2018-03-26T08:16:06.499Z,25.53
2018-03-26T08:18:34.783Z,27.07
2018-03-26T08:21:02.295Z,26.10
2018-03-26T08:23:29.818Z,24.43
2018-03-26T08:25:58.188Z,26.53
2018-03-26T08:28:25.699Z,25.73
2018-03-26T08:30:53.283Z,26.27
2018-03-26T08:33:21.649Z,26.10
2018-03-26T08:35:49.987Z,26.70
2018-03-26T08:38:17.460Z,26.50
2018-03-26T08:40:45.008Z,26.00
2018-03-26T08:43:12.529Z,27.03
2018-03-26T08:45:40.051Z,26.60
2018-03-26T08:48:08.389Z,25.63
2018-03-26T08:50:35.917Z,26.43
2018-03-26T08:53:03.455Z,26.43
2018-03-26T08:55:31.758Z,26.57
2018-03-26T08:57:59.290Z,25.83
2018-03-26T09:00:26.883Z,26.53
2018-03-26T09:02:54.474Z,25.87
2018-03-26T09:05:21.990Z,25.50
2018-03-26T09:07:49.498Z,26.33
2018-03-26T09:10:17.771Z,25.20
2018-03-26T09:12:45.370Z,25.47
2018-03-26T09:15:12.876Z,25.70
2018-03-26T09:17:40.430Z,25.23
2018-03-26T09:20:07.967Z,24.73
2018-03-26T09:22:35.514Z,25.27
2018-03-26T09:25:03.035Z,25.53
2018-03-26T09:27:31.328Z,26.03
2018-03-26T09:29:58.836Z,25.30
2018-03-26T09:32:26.368Z,25.77
2018-03-26T09:34:54.004Z,26.47
2018-03-26T09:37:21.573Z,26.13
2018-03-26T09:39:49.130Z,25.73
2018-03-26T09:42:17.479Z,26.03
2018-03-26T09:44:45.828Z,26.13
2018-03-26T09:47:13.340Z,27.40
2018-03-26T09:49:40.848Z,25.40
2018-03-26T09:52:08.388Z,26.53
2018-03-26T09:54:35.911Z,26.40
2018-03-26T09:57:03.451Z,28.20
2018-03-26T09:59:30.947Z,25.17
2018-03-26T10:01:58.539Z,28.93
2018-03-26T10:04:26.827Z,26.27
2018-03-26T10:06:55.211Z,26.30
2018-03-26T10:09:22.796Z,26.53
2018-03-26T10:11:50.318Z,26.07
2018-03-26T10:14:18.654Z,26.83
2018-03-26T10:16:46.255Z,25.30
2018-03-26T10:19:14.541Z,26.60
2018-03-26T10:21:42.046Z,28.63
2018-03-26T10:24:09.599Z,26.30
2018-03-26T10:26:37.174Z,25.83
2018-03-26T10:29:05.481Z,26.47
2018-03-26T10:31:33.045Z,26.83
2018-03-26T10:34:00.694Z,27.07
2018-03-26T10:36:28.983Z,25.77
2018-03-26T10:38:56.524Z,26.50
2018-03-26T10:41:24.846Z,26.50
2018-03-26T10:43:53.480Z,26.17
2018-03-26T10:46:21.789Z,26.30
2018-03-26T10:48:49.302Z,25.57
2018-03-26T10:51:16.866Z,26.70
2018-03-26T10:53:45.167Z,26.53
2018-03-26T10:56:12.672Z,26.33
2018-03-26T10:58:40.202Z,25.60
2018-03-26T11:01:08.475Z,26.33
2018-03-26T11:03:36.038Z,26.37
2018-03-26T11:06:03.550Z,26.63
2018-03-26T11:08:32.543Z,26.27
2018-03-26T11:11:00.081Z,26.43
2018-03-26T11:13:27.619Z,26.07
2018-03-26T11:15:55.164Z,26.60
2018-03-26T11:18:22.692Z,26.83
2018-03-26T11:20:50.210Z,26.17
2018-03-26T11:23:17.733Z,25.43
2018-03-26T11:25:46.043Z,25.50
2018-03-26T11:28:13.558Z,25.70
2018-03-26T11:30:41.078Z,25.97
2018-03-26T11:33:09.374Z,24.93
2018-03-26T11:35:37.019Z,26.33
2018-03-26T11:38:05.381Z,24.43
2018-03-26T11:40:33.667Z,25.30
2018-03-26T11:43:01.944Z,24.83
2018-03-26T11:45:29.507Z,26.40
2018-03-26T11:47:57.034Z,26.77
2018-03-26T11:50:24.652Z,26.40
2018-03-26T11:52:52.196Z,26.80
2018-03-26T11:55:19.697Z,27.03
2018-03-26T11:57:48.009Z,26.33
2018-03-26T12:00:16.299Z,24.37
2018-03-26T12:02:43.846Z,26.17
2018-03-26T12:05:11.366Z,26.60
2018-03-26T12:07:39.668Z,25.30
2018-03-26T12:10:07.974Z,25.57
2018-03-26T12:12:35.498Z,24.37
2018-03-26T12:15:03.794Z,23.67
2018-03-26T12:17:31.300Z,26.43
2018-03-26T12:20:10.738Z,25.73
2018-03-26T12:22:38.245Z,25.57
2018-03-26T12:25:14.046Z,26.57
2018-03-26T12:27:53.521Z,26.87
2018-03-26T12:30:25.222Z,27.23
2018-03-26T12:32:52.741Z,26.87
2018-03-26T12:35:32.158Z,25.27
2018-03-26T12:38:00.450Z,25.47
2018-03-26T12:40:39.850Z,25.60
2018-03-26T12:43:07.447Z,25.90
2018-03-26T12:45:46.922Z,26.17
2018-03-26T12:48:14.432Z,25.40
2018-03-26T12:50:54.574Z,26.37
2018-03-26T12:53:22.863Z,26.27
2018-03-26T12:55:51.133Z,25.77
2018-03-26T12:58:31.256Z,26.63
2018-03-26T13:01:10.527Z,27.97
2018-03-26T13:03:38.050Z,27.43
2018-03-26T13:06:05.559Z,26.73
2018-03-26T13:08:34.429Z,26.93
2018-03-26T13:11:01.940Z,27.73
2018-03-26T13:13:29.477Z,26.90
2018-03-26T13:15:57.016Z,28.07
2018-03-26T13:18:24.607Z,26.90
2018-03-26T13:20:52.128Z,25.87
2018-03-26T13:23:19.661Z,26.57
2018-03-26T13:25:47.932Z,24.57
2018-03-26T13:28:16.266Z,24.63
2018-03-26T13:30:43.788Z,24.07
2018-03-26T13:33:11.307Z,24.43
2018-03-26T13:35:39.733Z,25.20
2018-03-26T13:38:07.294Z,25.63
2018-03-26T13:40:34.829Z,24.87
2018-03-26T13:43:03.145Z,25.17
2018-03-26T13:45:30.681Z,24.17
2018-03-26T13:47:58.327Z,26.50
2018-03-26T13:50:25.847Z,25.87
2018-03-26T13:52:53.378Z,25.97
2018-03-26T13:55:20.901Z,26.23
2018-03-26T13:57:49.215Z,26.90
2018-03-26T14:00:16.736Z,26.80
2018-03-26T14:02:44.255Z,26.23
2018-03-26T14:05:11.779Z,26.00
2018-03-26T14:07:39.291Z,26.87
2018-03-26T14:10:19.627Z,27.17
2018-03-26T14:12:59.795Z,26.53
2018-03-26T14:18:32.875Z,27.23
2018-03-26T14:21:00.342Z,27.23
2018-03-26T14:23:27.808Z,27.57
2018-03-26T14:25:55.273Z,27.07
2018-03-26T14:28:22.730Z,27.50
2018-03-26T14:30:50.209Z,27.40
2018-03-26T14:33:18.436Z,27.03
2018-03-26T14:35:45.899Z,26.70
2018-03-26T14:38:13.354Z,27.43
2018-03-26T14:40:40.821Z,26.70
2018-03-26T14:43:08.616Z,27.67
2018-03-26T14:45:36.046Z,27.57
2018-03-26T14:48:04.295Z,28.20
2018-03-26T14:50:31.754Z,27.13
2018-03-26T14:52:59.259Z,28.60
2018-03-26T14:55:26.734Z,28.03
2018-03-26T14:57:55.248Z,28.17
2018-03-26T15:00:23.018Z,28.90
2018-03-26T15:02:50.507Z,28.97
2018-03-26T15:05:17.948Z,27.03
2018-03-26T15:07:45.406Z,25.73
2018-03-26T15:10:12.877Z,26.67
2018-03-26T15:12:40.341Z,27.80
2018-03-26T15:15:07.819Z,25.97
2018-03-26T15:17:36.059Z,26.27
2018-03-26T15:20:03.531Z,26.10
2018-03-26T15:22:30.994Z,25.30
2018-03-26T15:24:58.461Z,26.93
2018-03-26T15:27:25.967Z,27.07
2018-03-26T15:29:54.160Z,28.77
2018-03-26T15:32:21.626Z,27.57
2018-03-26T15:34:49.085Z,26.57
2018-03-26T15:37:17.310Z,27.73
2018-03-26T15:39:45.089Z,26.03
2018-03-26T15:42:12.568Z,26.27
2018-03-26T15:44:40.039Z,27.50
2018-03-26T15:47:07.519Z,29.50
2018-03-26T15:49:35.003Z,29.07
2018-03-26T15:52:02.796Z,27.87
2018-03-26T15:54:30.262Z,26.60
2018-03-26T15:56:57.731Z,27.47
2018-03-26T15:59:25.200Z,28.93
2018-03-26T16:01:52.183Z,28.33
2018-03-26T16:04:19.646Z,28.83
2018-03-26T16:06:47.120Z,28.63
2018-03-26T16:09:14.599Z,28.13
2018-03-26T16:11:42.080Z,28.27
2018-03-26T16:14:09.546Z,28.67
2018-03-26T16:16:37.014Z,28.30
2018-03-26T16:19:04.480Z,27.93
2018-03-26T16:21:31.938Z,28.13
2018-03-26T16:23:59.402Z,28.30
2018-03-26T16:26:27.186Z,27.77
2018-03-26T16:28:55.567Z,26.63
2018-03-26T16:31:23.551Z,27.67
2018-03-26T16:33:51.294Z,27.90
2018-03-26T16:36:18.996Z,28.93
2018-03-26T16:38:46.724Z,29.13
2018-03-26T16:41:26.263Z,29.37
2018-03-26T16:43:53.749Z,30.30
2018-03-26T16:46:21.256Z,29.23
2018-03-26T16:48:48.788Z,30.63
2018-03-26T16:51:16.244Z,30.70
2018-03-26T16:53:43.765Z,29.67
2018-03-26T16:56:11.271Z,29.60
2018-03-26T16:58:39.510Z,29.03
2018-03-26T17:01:06.975Z,30.07
2018-03-26T17:03:34.447Z,29.60
2018-03-26T17:06:01.992Z,27.97
2018-03-26T17:08:29.501Z,29.17
2018-03-26T17:10:57.018Z,29.87
2018-03-26T17:13:24.439Z,28.00
2018-03-26T17:15:51.989Z,27.83
2018-03-26T17:18:19.459Z,27.27
2018-03-26T17:20:47.224Z,26.93
2018-03-26T17:23:14.686Z,27.93
2018-03-26T17:25:42.151Z,33.10
2018-03-26T17:28:09.620Z,26.50
2018-03-26T17:30:38.162Z,27.13
2018-03-26T17:33:05.954Z,26.30
2018-03-26T17:35:33.486Z,26.97
2018-03-26T17:38:01.260Z,26.90
2018-03-26T17:40:28.725Z,27.90
2018-03-26T17:42:56.188Z,26.93
2018-03-26T17:45:23.790Z,27.80
2018-03-26T17:47:51.299Z,27.27
2018-03-26T17:50:19.055Z,26.07
2018-03-26T17:52:46.539Z,29.43
2018-03-26T17:55:14.007Z,29.73
2018-03-26T17:57:41.532Z,29.13
2018-03-26T18:00:08.991Z,27.70
2018-03-26T18:02:37.069Z,26.20
2018-03-26T18:05:05.394Z,29.07
2018-03-26T18:07:32.852Z,26.90
2018-03-26T18:10:00.341Z,29.57
2018-03-26T18:12:27.801Z,29.17
2018-03-26T18:14:55.266Z,28.67
2018-03-26T18:17:23.032Z,29.80
2018-03-26T18:19:50.490Z,31.30
2018-03-26T18:22:17.954Z,30.87
2018-03-26T18:24:45.406Z,33.57
2018-03-26T18:27:12.870Z,33.07
2018-03-26T18:29:40.356Z,33.07
2018-03-26T18:32:07.814Z,32.03
2018-03-26T18:34:35.291Z,34.77
2018-03-26T18:37:03.232Z,34.77
2018-03-26T18:39:30.707Z,31.83
2018-03-26T18:41:58.186Z,40.03
2018-03-26T18:44:25.653Z,39.20
2018-03-26T18:46:53.114Z,41.90
2018-03-26T18:49:20.576Z,35.37
2018-03-26T18:51:48.040Z,33.20
2018-03-26T18:54:15.499Z,40.23
2018-03-26T18:56:43.319Z,33.90
2018-03-26T18:59:10.751Z,35.90
2018-03-26T19:01:38.213Z,35.10
2018-03-26T19:04:05.683Z,33.40
2018-03-26T19:06:33.148Z,32.17
2018-03-26T19:09:00.864Z,31.70
2018-03-26T19:11:28.336Z,31.97
2018-03-26T19:13:55.806Z,33.53
2018-03-26T19:16:23.272Z,32.97
2018-03-26T19:18:50.743Z,35.60
2018-03-26T19:21:18.206Z,49.47
2018-03-26T19:23:46.430Z,61.40
2018-03-26T19:26:13.902Z,42.87
2018-03-26T19:28:41.372Z,38.77
2018-03-26T19:31:09.211Z,34.10
2018-03-26T19:33:36.673Z,36.37
2018-03-26T19:36:04.151Z,34.30
2018-03-26T19:38:31.918Z,31.83
2018-03-26T19:41:00.166Z,33.60
2018-03-26T19:43:27.635Z,41.60
2018-03-26T19:45:55.093Z,35.57
2018-03-26T19:48:22.549Z,35.63
2018-03-26T19:50:50.031Z,36.03
2018-03-26T19:53:17.482Z,36.83
2018-03-26T19:55:44.949Z,36.70
2018-03-26T19:58:12.438Z,38.70
2018-03-26T20:00:40.661Z,38.27
2018-03-26T20:03:08.598Z,38.57
2018-03-26T20:05:36.062Z,39.43
2018-03-26T20:08:03.528Z,39.87
2018-03-26T20:10:30.988Z,38.40
2018-03-26T20:12:58.454Z,42.17
2018-03-26T20:15:25.926Z,40.87
2018-03-26T20:17:53.401Z,40.43
2018-03-26T20:20:20.870Z,42.27
2018-03-26T20:22:49.115Z,41.50
2018-03-26T20:25:16.589Z,38.37
2018-03-26T20:27:44.300Z,41.60
2018-03-26T20:30:11.770Z,40.83
2018-03-26T20:32:39.242Z,40.50
2018-03-26T20:35:06.707Z,39.73
2018-03-26T20:37:34.183Z,40.10
2018-03-26T20:40:01.904Z,41.30
2018-03-26T20:42:29.362Z,39.53
2018-03-26T20:47:30.827Z,42.23
2018-03-26T20:49:58.300Z,41.27
2018-03-26T20:52:25.842Z,42.60
2018-03-26T20:54:53.308Z,42.90
2018-03-26T20:57:22.078Z,41.17
2018-03-26T20:59:49.547Z,44.17
2018-03-26T21:02:17.099Z,41.17
2018-03-26T21:04:45.341Z,43.00
2018-03-26T21:07:14.064Z,42.43
2018-03-26T21:09:41.538Z,44.37
2018-03-26T21:12:09.277Z,43.93
2018-03-26T21:14:36.772Z,42.77
2018-03-26T21:17:04.304Z,43.27
2018-03-26T21:19:31.852Z,44.57
2018-03-26T21:22:00.225Z,45.17
2018-03-26T21:24:27.676Z,44.07
2018-03-26T21:26:55.456Z,43.30
2018-03-26T21:29:23.223Z,42.47
2018-03-26T21:31:50.682Z,44.67
2018-03-26T21:34:18.448Z,43.07
2018-03-26T21:36:45.949Z,45.73
2018-03-26T21:39:13.418Z,45.53
2018-03-26T21:41:40.887Z,43.20
2018-03-26T21:44:09.117Z,43.00
2018-03-26T21:46:36.850Z,44.23
2018-03-26T21:49:04.718Z,43.23
2018-03-26T21:51:32.202Z,44.20
2018-03-26T21:53:59.716Z,41.07
2018-03-26T21:56:27.183Z,42.53
2018-03-26T21:58:54.643Z,42.63
2018-03-26T22:01:22.099Z,45.13
2018-03-26T22:03:49.558Z,46.87
2018-03-26T22:06:17.326Z,45.57
2018-03-26T22:08:44.779Z,43.47
2018-03-26T22:11:12.245Z,44.77
2018-03-26T22:13:39.709Z,43.93
2018-03-26T22:16:07.175Z,45.23
2018-03-26T22:18:34.638Z,44.87
2018-03-26T22:21:02.108Z,43.60
2018-03-26T22:23:29.580Z,43.27
2018-03-26T22:25:57.290Z,43.20
2018-03-26T22:28:24.767Z,43.50
2018-03-26T22:30:52.244Z,43.97
2018-03-26T22:33:19.714Z,44.13
2018-03-26T22:35:47.430Z,43.27
2018-03-26T22:38:14.889Z,42.47
2018-03-26T22:40:42.357Z,42.97
2018-03-26T22:43:09.819Z,43.90
2018-03-26T22:45:37.287Z,42.10
2018-03-26T22:48:05.018Z,42.87
2018-03-26T22:50:32.483Z,43.07
2018-03-26T22:53:00.247Z,41.70
2018-03-26T22:55:27.701Z,41.80
2018-03-26T22:57:55.183Z,41.30
2018-03-26T23:00:23.410Z,41.77
2018-03-26T23:02:50.883Z,41.77
2018-03-26T23:05:18.367Z,41.53
2018-03-26T23:07:45.818Z,41.13
2018-03-26T23:10:13.284Z,42.33
2018-03-26T23:12:40.734Z,41.10
2018-03-26T23:15:08.483Z,42.53
2018-03-26T23:17:35.938Z,41.13
2018-03-26T23:20:03.402Z,43.93
2018-03-26T23:22:42.626Z,42.47
2018-03-26T23:25:10.096Z,42.53
2018-03-26T23:27:37.852Z,43.63
2018-03-26T23:30:05.312Z,42.07
2018-03-26T23:32:32.773Z,40.63
2018-03-26T23:35:00.247Z,43.60
2018-03-26T23:37:27.713Z,43.43
2018-03-26T23:39:55.444Z,44.53
2018-03-26T23:42:22.899Z,41.90
2018-03-26T23:44:50.365Z,43.63
2018-03-26T23:47:17.835Z,42.83
2018-03-26T23:49:45.291Z,45.70
2018-03-26T23:52:13.518Z,44.90
2018-03-26T23:54:41.738Z,43.60
2018-03-26T23:57:09.207Z,45.83
2018-03-26T23:59:37.661Z,44.20
